sensor_id;sensor_type;location;lat;lon;timestamp;P1;durP1;ratioP1;P2;durP2;ratioP2
48040;SDS011;33815;48.386;11.738;2023-04-24T00:01:20;3.57;;;2.00;;
48040;SDS011;33815;48.386;11.738;2023-04-24T00:03:45;5.30;;;2.13;;
48040;SDS011;33815;48.386;11.738;2023-04-24T00:06:11;2.83;;;2.30;;
48040;SDS011;33815;48.386;11.738;2023-04-24T00:08:36;2.13;;;1.50;;
48040;SDS011;33815;48.386;11.738;2023-04-24T00:11:01;1.97;;;1.77;;
48040;SDS011;33815;48.386;11.738;2023-04-24T00:13:26;3.88;;;2.03;;
48040;SDS011;33815;48.386;11.738;2023-04-24T00:15:53;1.83;;;1.73;;
48040;SDS011;33815;48.386;11.738;2023-04-24T00:18:19;1.80;;;1.70;;
48040;SDS011;33815;48.386;11.738;2023-04-24T00:20:44;3.45;;;1.73;;
48040;SDS011;33815;48.386;11.738;2023-04-24T00:23:09;2.42;;;2.05;;
48040;SDS011;33815;48.386;11.738;2023-04-24T00:25:35;1.75;;;1.58;;
48040;SDS011;33815;48.386;11.738;2023-04-24T00:28:00;2.08;;;1.88;;
48040;SDS011;33815;48.386;11.738;2023-04-24T00:30:25;1.85;;;1.73;;
48040;SDS011;33815;48.386;11.738;2023-04-24T00:32:51;2.28;;;1.70;;
48040;SDS011;33815;48.386;11.738;2023-04-24T00:35:16;2.17;;;1.50;;
48040;SDS011;33815;48.386;11.738;2023-04-24T00:37:41;4.95;;;2.00;;
48040;SDS011;33815;48.386;11.738;2023-04-24T00:40:07;2.10;;;1.55;;
48040;SDS011;33815;48.386;11.738;2023-04-24T00:42:32;2.47;;;1.50;;
48040;SDS011;33815;48.386;11.738;2023-04-24T00:44:58;1.50;;;1.33;;
48040;SDS011;33815;48.386;11.738;2023-04-24T00:47:24;1.77;;;1.67;;
48040;SDS011;33815;48.386;11.738;2023-04-24T00:49:50;2.72;;;1.85;;
48040;SDS011;33815;48.386;11.738;2023-04-24T00:52:15;2.80;;;1.80;;
48040;SDS011;33815;48.386;11.738;2023-04-24T00:54:42;1.73;;;1.63;;
48040;SDS011;33815;48.386;11.738;2023-04-24T00:57:11;4.80;;;1.65;;
48040;SDS011;33815;48.386;11.738;2023-04-24T00:59:39;1.55;;;1.45;;
48040;SDS011;33815;48.386;11.738;2023-04-24T01:02:05;2.55;;;1.70;;
48040;SDS011;33815;48.386;11.738;2023-04-24T01:04:33;2.42;;;1.80;;
48040;SDS011;33815;48.386;11.738;2023-04-24T01:06:58;2.53;;;1.92;;
48040;SDS011;33815;48.386;11.738;2023-04-24T01:09:23;2.23;;;1.70;;
48040;SDS011;33815;48.386;11.738;2023-04-24T01:11:49;2.10;;;1.90;;
48040;SDS011;33815;48.386;11.738;2023-04-24T01:14:15;1.67;;;1.58;;
48040;SDS011;33815;48.386;11.738;2023-04-24T01:16:41;3.25;;;1.75;;
48040;SDS011;33815;48.386;11.738;2023-04-24T01:19:07;2.65;;;1.67;;
48040;SDS011;33815;48.386;11.738;2023-04-24T01:21:34;2.03;;;1.90;;
48040;SDS011;33815;48.386;11.738;2023-04-24T01:24:02;1.60;;;1.50;;
48040;SDS011;33815;48.386;11.738;2023-04-24T01:26:28;1.27;;;1.15;;
48040;SDS011;33815;48.386;11.738;2023-04-24T01:28:53;2.75;;;1.65;;
48040;SDS011;33815;48.386;11.738;2023-04-24T01:31:19;3.75;;;1.77;;
48040;SDS011;33815;48.386;11.738;2023-04-24T01:33:45;3.42;;;1.42;;
48040;SDS011;33815;48.386;11.738;2023-04-24T01:36:10;5.55;;;1.75;;
48040;SDS011;33815;48.386;11.738;2023-04-24T01:38:36;3.67;;;1.92;;
48040;SDS011;33815;48.386;11.738;2023-04-24T01:41:01;2.40;;;1.40;;
48040;SDS011;33815;48.386;11.738;2023-04-24T01:43:27;1.80;;;1.70;;
48040;SDS011;33815;48.386;11.738;2023-04-24T01:45:52;1.60;;;1.50;;
48040;SDS011;33815;48.386;11.738;2023-04-24T01:48:18;1.48;;;1.38;;
48040;SDS011;33815;48.386;11.738;2023-04-24T01:50:43;2.15;;;1.67;;
48040;SDS011;33815;48.386;11.738;2023-04-24T01:53:08;2.17;;;1.73;;
48040;SDS011;33815;48.386;11.738;2023-04-24T01:55:34;1.73;;;1.63;;
48040;SDS011;33815;48.386;11.738;2023-04-24T01:57:59;1.70;;;1.60;;
48040;SDS011;33815;48.386;11.738;2023-04-24T02:00:24;1.58;;;1.48;;
48040;SDS011;33815;48.386;11.738;2023-04-24T02:02:50;1.58;;;1.48;;
48040;SDS011;33815;48.386;11.738;2023-04-24T02:05:15;1.88;;;1.35;;
48040;SDS011;33815;48.386;11.738;2023-04-24T02:07:40;3.70;;;1.38;;
48040;SDS011;33815;48.386;11.738;2023-04-24T02:10:06;1.05;;;0.98;;
48040;SDS011;33815;48.386;11.738;2023-04-24T02:12:31;4.75;;;1.20;;
48040;SDS011;33815;48.386;11.738;2023-04-24T02:14:57;1.30;;;1.20;;
48040;SDS011;33815;48.386;11.738;2023-04-24T02:17:22;1.30;;;1.27;;
48040;SDS011;33815;48.386;11.738;2023-04-24T02:19:47;2.10;;;1.30;;
48040;SDS011;33815;48.386;11.738;2023-04-24T02:22:13;1.50;;;1.40;;
48040;SDS011;33815;48.386;11.738;2023-04-24T02:24:38;3.05;;;1.27;;
48040;SDS011;33815;48.386;11.738;2023-04-24T02:27:04;1.35;;;1.23;;
48040;SDS011;33815;48.386;11.738;2023-04-24T02:29:29;2.22;;;1.25;;
48040;SDS011;33815;48.386;11.738;2023-04-24T02:31:55;1.20;;;1.10;;
48040;SDS011;33815;48.386;11.738;2023-04-24T02:34:20;0.95;;;0.95;;
48040;SDS011;33815;48.386;11.738;2023-04-24T02:36:46;0.93;;;0.93;;
48040;SDS011;33815;48.386;11.738;2023-04-24T02:39:11;3.37;;;1.50;;
48040;SDS011;33815;48.386;11.738;2023-04-24T02:41:36;3.03;;;1.00;;
48040;SDS011;33815;48.386;11.738;2023-04-24T02:44:01;1.08;;;1.08;;
48040;SDS011;33815;48.386;11.738;2023-04-24T02:46:27;0.90;;;0.90;;
48040;SDS011;33815;48.386;11.738;2023-04-24T02:48:52;1.33;;;1.20;;
48040;SDS011;33815;48.386;11.738;2023-04-24T02:51:17;2.67;;;1.10;;
48040;SDS011;33815;48.386;11.738;2023-04-24T02:53:42;0.90;;;0.90;;
48040;SDS011;33815;48.386;11.738;2023-04-24T02:56:08;2.80;;;0.90;;
48040;SDS011;33815;48.386;11.738;2023-04-24T02:58:33;1.02;;;1.02;;
48040;SDS011;33815;48.386;11.738;2023-04-24T03:00:59;1.25;;;0.80;;
48040;SDS011;33815;48.386;11.738;2023-04-24T03:03:25;0.90;;;0.90;;
48040;SDS011;33815;48.386;11.738;2023-04-24T03:05:50;0.80;;;0.80;;
48040;SDS011;33815;48.386;11.738;2023-04-24T03:08:16;1.13;;;1.08;;
48040;SDS011;33815;48.386;11.738;2023-04-24T03:10:41;1.25;;;0.90;;
48040;SDS011;33815;48.386;11.738;2023-04-24T03:13:06;1.38;;;1.00;;
48040;SDS011;33815;48.386;11.738;2023-04-24T03:15:32;2.13;;;1.30;;
48040;SDS011;33815;48.386;11.738;2023-04-24T03:17:57;0.90;;;0.90;;
48040;SDS011;33815;48.386;11.738;2023-04-24T03:20:22;2.60;;;0.98;;
48040;SDS011;33815;48.386;11.738;2023-04-24T03:22:48;1.35;;;0.95;;
48040;SDS011;33815;48.386;11.738;2023-04-24T03:25:13;4.07;;;1.10;;
48040;SDS011;33815;48.386;11.738;2023-04-24T03:27:38;0.93;;;0.93;;
48040;SDS011;33815;48.386;11.738;2023-04-24T03:30:04;1.23;;;1.13;;
48040;SDS011;33815;48.386;11.738;2023-04-24T03:32:31;1.27;;;0.90;;
48040;SDS011;33815;48.386;11.738;2023-04-24T03:34:57;1.70;;;1.00;;
48040;SDS011;33815;48.386;11.738;2023-04-24T03:37:22;1.23;;;1.13;;
48040;SDS011;33815;48.386;11.738;2023-04-24T03:39:48;1.08;;;0.98;;
48040;SDS011;33815;48.386;11.738;2023-04-24T03:42:13;1.50;;;0.98;;
48040;SDS011;33815;48.386;11.738;2023-04-24T03:44:38;2.70;;;1.20;;
48040;SDS011;33815;48.386;11.738;2023-04-24T03:47:04;1.67;;;1.00;;
48040;SDS011;33815;48.386;11.738;2023-04-24T03:49:29;1.58;;;1.00;;
48040;SDS011;33815;48.386;11.738;2023-04-24T03:51:54;1.92;;;1.02;;
48040;SDS011;33815;48.386;11.738;2023-04-24T03:54:20;1.10;;;1.00;;
48040;SDS011;33815;48.386;11.738;2023-04-24T03:56:45;1.40;;;1.10;;
48040;SDS011;33815;48.386;11.738;2023-04-24T03:59:11;1.15;;;0.98;;
48040;SDS011;33815;48.386;11.738;2023-04-24T04:01:36;1.40;;;1.10;;
48040;SDS011;33815;48.386;11.738;2023-04-24T04:04:05;1.20;;;1.10;;
48040;SDS011;33815;48.386;11.738;2023-04-24T04:06:31;2.58;;;0.95;;
48040;SDS011;33815;48.386;11.738;2023-04-24T04:08:57;1.65;;;1.25;;
48040;SDS011;33815;48.386;11.738;2023-04-24T04:11:23;1.00;;;0.90;;
48040;SDS011;33815;48.386;11.738;2023-04-24T04:13:49;1.98;;;0.98;;
48040;SDS011;33815;48.386;11.738;2023-04-24T04:16:14;1.05;;;1.02;;
48040;SDS011;33815;48.386;11.738;2023-04-24T04:18:43;1.40;;;1.10;;
48040;SDS011;33815;48.386;11.738;2023-04-24T04:21:08;3.40;;;1.10;;
48040;SDS011;33815;48.386;11.738;2023-04-24T04:23:34;2.28;;;1.10;;
48040;SDS011;33815;48.386;11.738;2023-04-24T04:25:59;2.15;;;1.13;;
48040;SDS011;33815;48.386;11.738;2023-04-24T04:28:25;1.10;;;1.10;;
48040;SDS011;33815;48.386;11.738;2023-04-24T04:30:51;4.10;;;1.08;;
48040;SDS011;33815;48.386;11.738;2023-04-24T04:33:20;1.10;;;1.00;;
48040;SDS011;33815;48.386;11.738;2023-04-24T04:35:46;1.10;;;1.10;;
48040;SDS011;33815;48.386;11.738;2023-04-24T04:38:13;1.60;;;1.17;;
48040;SDS011;33815;48.386;11.738;2023-04-24T04:40:39;1.20;;;1.20;;
48040;SDS011;33815;48.386;11.738;2023-04-24T04:43:05;1.40;;;1.10;;
48040;SDS011;33815;48.386;11.738;2023-04-24T04:45:30;1.00;;;1.00;;
48040;SDS011;33815;48.386;11.738;2023-04-24T04:47:57;2.70;;;1.23;;
48040;SDS011;33815;48.386;11.738;2023-04-24T04:50:23;1.30;;;1.20;;
48040;SDS011;33815;48.386;11.738;2023-04-24T04:52:48;2.17;;;1.70;;
48040;SDS011;33815;48.386;11.738;2023-04-24T04:55:13;7.37;;;1.40;;
48040;SDS011;33815;48.386;11.738;2023-04-24T04:57:39;4.47;;;1.35;;
48040;SDS011;33815;48.386;11.738;2023-04-24T05:00:05;2.13;;;0.97;;
48040;SDS011;33815;48.386;11.738;2023-04-24T05:02:32;1.10;;;1.10;;
48040;SDS011;33815;48.386;11.738;2023-04-24T05:04:58;1.60;;;1.23;;
48040;SDS011;33815;48.386;11.738;2023-04-24T05:07:23;1.03;;;1.03;;
48040;SDS011;33815;48.386;11.738;2023-04-24T05:09:48;1.40;;;1.30;;
48040;SDS011;33815;48.386;11.738;2023-04-24T05:12:13;2.28;;;1.55;;
48040;SDS011;33815;48.386;11.738;2023-04-24T05:14:39;4.15;;;1.42;;
48040;SDS011;33815;48.386;11.738;2023-04-24T05:17:04;3.17;;;1.67;;
48040;SDS011;33815;48.386;11.738;2023-04-24T05:19:29;1.65;;;1.45;;
48040;SDS011;33815;48.386;11.738;2023-04-24T05:21:57;1.75;;;1.35;;
48040;SDS011;33815;48.386;11.738;2023-04-24T05:24:23;5.87;;;1.80;;
48040;SDS011;33815;48.386;11.738;2023-04-24T05:26:48;2.67;;;1.60;;
48040;SDS011;33815;48.386;11.738;2023-04-24T05:29:13;2.42;;;1.85;;
48040;SDS011;33815;48.386;11.738;2023-04-24T05:31:38;1.60;;;1.33;;
48040;SDS011;33815;48.386;11.738;2023-04-24T05:34:04;2.20;;;1.70;;
48040;SDS011;33815;48.386;11.738;2023-04-24T05:36:30;4.90;;;1.50;;
48040;SDS011;33815;48.386;11.738;2023-04-24T05:38:56;2.92;;;2.10;;
48040;SDS011;33815;48.386;11.738;2023-04-24T05:41:21;2.33;;;2.13;;
48040;SDS011;33815;48.386;11.738;2023-04-24T05:43:47;1.52;;;1.33;;
48040;SDS011;33815;48.386;11.738;2023-04-24T05:46:12;3.72;;;2.08;;
48040;SDS011;33815;48.386;11.738;2023-04-24T05:48:37;4.50;;;2.30;;
48040;SDS011;33815;48.386;11.738;2023-04-24T05:51:03;1.40;;;1.30;;
48040;SDS011;33815;48.386;11.738;2023-04-24T05:53:28;1.40;;;1.30;;
48040;SDS011;33815;48.386;11.738;2023-04-24T05:55:53;1.60;;;1.10;;
48040;SDS011;33815;48.386;11.738;2023-04-24T05:58:18;5.90;;;1.17;;
48040;SDS011;33815;48.386;11.738;2023-04-24T06:00:44;1.15;;;1.02;;
48040;SDS011;33815;48.386;11.738;2023-04-24T06:03:11;1.38;;;1.27;;
48040;SDS011;33815;48.386;11.738;2023-04-24T06:05:36;1.15;;;1.05;;
48040;SDS011;33815;48.386;11.738;2023-04-24T06:08:01;2.28;;;1.00;;
48040;SDS011;33815;48.386;11.738;2023-04-24T06:10:27;1.10;;;0.97;;
48040;SDS011;33815;48.386;11.738;2023-04-24T06:12:52;8.45;;;0.85;;
48040;SDS011;33815;48.386;11.738;2023-04-24T06:15:17;1.20;;;0.93;;
48040;SDS011;33815;48.386;11.738;2023-04-24T06:17:43;0.85;;;0.85;;
48040;SDS011;33815;48.386;11.738;2023-04-24T06:20:08;0.85;;;0.70;;
48040;SDS011;33815;48.386;11.738;2023-04-24T06:22:35;1.33;;;1.10;;
48040;SDS011;33815;48.386;11.738;2023-04-24T06:25:01;2.92;;;1.15;;
48040;SDS011;33815;48.386;11.738;2023-04-24T06:27:26;1.90;;;0.88;;
48040;SDS011;33815;48.386;11.738;2023-04-24T06:29:51;0.90;;;0.90;;
48040;SDS011;33815;48.386;11.738;2023-04-24T06:32:20;0.70;;;0.70;;
48040;SDS011;33815;48.386;11.738;2023-04-24T06:34:47;0.90;;;0.90;;
48040;SDS011;33815;48.386;11.738;2023-04-24T06:37:12;0.93;;;0.93;;
48040;SDS011;33815;48.386;11.738;2023-04-24T06:39:37;9.52;;;2.13;;
48040;SDS011;33815;48.386;11.738;2023-04-24T06:42:02;4.47;;;1.40;;
48040;SDS011;33815;48.386;11.738;2023-04-24T06:44:28;30.10;;;4.35;;
48040;SDS011;33815;48.386;11.738;2023-04-24T06:46:53;2.27;;;0.80;;
48040;SDS011;33815;48.386;11.738;2023-04-24T06:49:18;12.50;;;2.03;;
48040;SDS011;33815;48.386;11.738;2023-04-24T06:51:43;2.15;;;0.60;;
48040;SDS011;33815;48.386;11.738;2023-04-24T06:54:09;0.77;;;0.77;;
48040;SDS011;33815;48.386;11.738;2023-04-24T06:56:34;1.45;;;0.70;;
48040;SDS011;33815;48.386;11.738;2023-04-24T06:59:00;0.63;;;0.60;;
48040;SDS011;33815;48.386;11.738;2023-04-24T07:01:25;0.90;;;0.83;;
48040;SDS011;33815;48.386;11.738;2023-04-24T07:03:50;0.73;;;0.60;;
48040;SDS011;33815;48.386;11.738;2023-04-24T07:06:15;1.40;;;1.00;;
48040;SDS011;33815;48.386;11.738;2023-04-24T07:08:43;1.40;;;1.00;;
48040;SDS011;33815;48.386;11.738;2023-04-24T07:11:08;1.02;;;0.88;;
48040;SDS011;33815;48.386;11.738;2023-04-24T07:13:34;0.45;;;0.45;;
48040;SDS011;33815;48.386;11.738;2023-04-24T07:16:00;1.10;;;0.60;;
48040;SDS011;33815;48.386;11.738;2023-04-24T07:18:25;0.73;;;0.70;;
48040;SDS011;33815;48.386;11.738;2023-04-24T07:20:50;0.50;;;0.50;;
48040;SDS011;33815;48.386;11.738;2023-04-24T07:23:16;1.63;;;0.40;;
48040;SDS011;33815;48.386;11.738;2023-04-24T07:25:42;0.52;;;0.52;;
48040;SDS011;33815;48.386;11.738;2023-04-24T07:28:08;2.40;;;0.70;;
48040;SDS011;33815;48.386;11.738;2023-04-24T07:30:33;0.60;;;0.60;;
48040;SDS011;33815;48.386;11.738;2023-04-24T07:32:58;0.70;;;0.50;;
48040;SDS011;33815;48.386;11.738;2023-04-24T07:35:25;1.10;;;0.47;;
48040;SDS011;33815;48.386;11.738;2023-04-24T07:37:53;0.63;;;0.60;;
48040;SDS011;33815;48.386;11.738;2023-04-24T07:40:19;0.50;;;0.50;;
48040;SDS011;33815;48.386;11.738;2023-04-24T07:42:45;0.70;;;0.50;;
48040;SDS011;33815;48.386;11.738;2023-04-24T07:45:10;0.30;;;0.30;;
48040;SDS011;33815;48.386;11.738;2023-04-24T07:47:35;0.55;;;0.55;;
48040;SDS011;33815;48.386;11.738;2023-04-24T07:50:02;1.00;;;0.80;;
48040;SDS011;33815;48.386;11.738;2023-04-24T07:52:27;3.05;;;1.90;;
48040;SDS011;33815;48.386;11.738;2023-04-24T07:54:54;0.40;;;0.40;;
48040;SDS011;33815;48.386;11.738;2023-04-24T07:57:23;1.13;;;0.50;;
48040;SDS011;33815;48.386;11.738;2023-04-24T07:59:49;0.38;;;0.35;;
48040;SDS011;33815;48.386;11.738;2023-04-24T08:02:14;0.45;;;0.45;;
48040;SDS011;33815;48.386;11.738;2023-04-24T08:04:40;0.98;;;0.75;;
48040;SDS011;33815;48.386;11.738;2023-04-24T08:07:05;1.42;;;0.52;;
48040;SDS011;33815;48.386;11.738;2023-04-24T08:09:31;0.77;;;0.55;;
48040;SDS011;33815;48.386;11.738;2023-04-24T08:11:56;1.60;;;0.50;;
48040;SDS011;33815;48.386;11.738;2023-04-24T08:14:21;0.40;;;0.40;;
48040;SDS011;33815;48.386;11.738;2023-04-24T08:16:46;0.60;;;0.60;;
48040;SDS011;33815;48.386;11.738;2023-04-24T08:19:12;2.13;;;0.50;;
48040;SDS011;33815;48.386;11.738;2023-04-24T08:21:37;0.60;;;0.52;;
48040;SDS011;33815;48.386;11.738;2023-04-24T08:24:02;0.40;;;0.40;;
48040;SDS011;33815;48.386;11.738;2023-04-24T08:26:30;1.00;;;0.50;;
48040;SDS011;33815;48.386;11.738;2023-04-24T08:28:55;1.38;;;0.55;;
48040;SDS011;33815;48.386;11.738;2023-04-24T08:31:21;0.50;;;0.50;;
48040;SDS011;33815;48.386;11.738;2023-04-24T08:33:47;0.40;;;0.40;;
48040;SDS011;33815;48.386;11.738;2023-04-24T08:36:12;0.60;;;0.60;;
48040;SDS011;33815;48.386;11.738;2023-04-24T08:38:38;2.33;;;0.50;;
48040;SDS011;33815;48.386;11.738;2023-04-24T08:41:03;0.77;;;0.55;;
48040;SDS011;33815;48.386;11.738;2023-04-24T08:43:29;0.50;;;0.50;;
48040;SDS011;33815;48.386;11.738;2023-04-24T08:45:57;3.90;;;0.88;;
48040;SDS011;33815;48.386;11.738;2023-04-24T08:48:24;0.90;;;0.90;;
48040;SDS011;33815;48.386;11.738;2023-04-24T08:50:50;1.17;;;1.00;;
48040;SDS011;33815;48.386;11.738;2023-04-24T08:53:15;0.77;;;0.77;;
48040;SDS011;33815;48.386;11.738;2023-04-24T08:55:41;1.05;;;1.05;;
48040;SDS011;33815;48.386;11.738;2023-04-24T08:58:08;1.00;;;1.00;;
48040;SDS011;33815;48.386;11.738;2023-04-24T09:00:34;0.90;;;0.90;;
48040;SDS011;33815;48.386;11.738;2023-04-24T09:03:00;0.90;;;0.90;;
48040;SDS011;33815;48.386;11.738;2023-04-24T09:05:26;1.20;;;1.10;;
48040;SDS011;33815;48.386;11.738;2023-04-24T09:07:55;1.40;;;1.30;;
48040;SDS011;33815;48.386;11.738;2023-04-24T09:10:24;1.42;;;1.33;;
48040;SDS011;33815;48.386;11.738;2023-04-24T09:12:50;3.10;;;1.00;;
48040;SDS011;33815;48.386;11.738;2023-04-24T09:15:16;0.80;;;0.80;;
48040;SDS011;33815;48.386;11.738;2023-04-24T09:17:43;0.90;;;0.90;;
48040;SDS011;33815;48.386;11.738;2023-04-24T09:20:08;1.05;;;0.95;;
48040;SDS011;33815;48.386;11.738;2023-04-24T09:22:34;0.98;;;0.98;;
48040;SDS011;33815;48.386;11.738;2023-04-24T09:25:03;2.05;;;0.80;;
48040;SDS011;33815;48.386;11.738;2023-04-24T09:27:31;0.82;;;0.82;;
48040;SDS011;33815;48.386;11.738;2023-04-24T09:29:57;0.90;;;0.90;;
48040;SDS011;33815;48.386;11.738;2023-04-24T09:32:23;6.10;;;1.08;;
48040;SDS011;33815;48.386;11.738;2023-04-24T09:35:04;2.10;;;1.10;;
48040;SDS011;33815;48.386;11.738;2023-04-24T09:37:34;0.85;;;0.85;;
48040;SDS011;33815;48.386;11.738;2023-04-24T09:40:14;4.10;;;1.05;;
48040;SDS011;33815;48.386;11.738;2023-04-24T09:42:44;2.78;;;1.02;;
48040;SDS011;33815;48.386;11.738;2023-04-24T09:45:21;2.47;;;0.88;;
48040;SDS011;33815;48.386;11.738;2023-04-24T09:47:50;0.90;;;0.90;;
48040;SDS011;33815;48.386;11.738;2023-04-24T09:50:17;0.80;;;0.80;;
48040;SDS011;33815;48.386;11.738;2023-04-24T09:52:43;0.95;;;0.80;;
48040;SDS011;33815;48.386;11.738;2023-04-24T09:55:11;2.80;;;1.10;;
48040;SDS011;33815;48.386;11.738;2023-04-24T09:57:46;2.45;;;0.70;;
48040;SDS011;33815;48.386;11.738;2023-04-24T10:00:23;1.33;;;0.77;;
48040;SDS011;33815;48.386;11.738;2023-04-24T10:02:59;0.98;;;0.93;;
48040;SDS011;33815;48.386;11.738;2023-04-24T10:05:36;0.70;;;0.70;;
48040;SDS011;33815;48.386;11.738;2023-04-24T10:10:29;0.68;;;0.68;;
48040;SDS011;33815;48.386;11.738;2023-04-24T10:12:55;1.42;;;1.23;;
48040;SDS011;33815;48.386;11.738;2023-04-24T10:15:21;1.42;;;1.20;;
48040;SDS011;33815;48.386;11.738;2023-04-24T10:17:47;1.27;;;0.85;;
48040;SDS011;33815;48.386;11.738;2023-04-24T10:20:21;0.70;;;0.70;;
48040;SDS011;33815;48.386;11.738;2023-04-24T10:22:49;1.65;;;1.00;;
48040;SDS011;33815;48.386;11.738;2023-04-24T10:25:16;1.05;;;0.95;;
48040;SDS011;33815;48.386;11.738;2023-04-24T10:27:43;1.73;;;0.70;;
48040;SDS011;33815;48.386;11.738;2023-04-24T10:30:11;0.73;;;0.73;;
48040;SDS011;33815;48.386;11.738;2023-04-24T10:32:37;1.88;;;1.02;;
48040;SDS011;33815;48.386;11.738;2023-04-24T10:35:03;2.45;;;0.90;;
48040;SDS011;33815;48.386;11.738;2023-04-24T10:37:29;1.73;;;1.63;;
48040;SDS011;33815;48.386;11.738;2023-04-24T10:40:01;1.60;;;1.00;;
48040;SDS011;33815;48.386;11.738;2023-04-24T10:42:27;5.60;;;0.90;;
48040;SDS011;33815;48.386;11.738;2023-04-24T10:44:53;2.38;;;0.70;;
48040;SDS011;33815;48.386;11.738;2023-04-24T10:47:19;0.95;;;0.95;;
48040;SDS011;33815;48.386;11.738;2023-04-24T10:49:44;5.82;;;0.80;;
48040;SDS011;33815;48.386;11.738;2023-04-24T10:52:10;1.30;;;0.80;;
48040;SDS011;33815;48.386;11.738;2023-04-24T10:57:25;3.08;;;0.73;;
48040;SDS011;33815;48.386;11.738;2023-04-24T11:02:45;0.82;;;0.82;;
48040;SDS011;33815;48.386;11.738;2023-04-24T11:05:17;1.23;;;0.90;;
48040;SDS011;33815;48.386;11.738;2023-04-24T11:10:54;0.95;;;0.80;;
48040;SDS011;33815;48.386;11.738;2023-04-24T11:13:23;1.10;;;0.85;;
48040;SDS011;33815;48.386;11.738;2023-04-24T11:19:02;0.80;;;0.80;;
48040;SDS011;33815;48.386;11.738;2023-04-24T11:21:41;0.70;;;0.70;;
48040;SDS011;33815;48.386;11.738;2023-04-24T11:24:25;2.47;;;0.80;;
48040;SDS011;33815;48.386;11.738;2023-04-24T11:27:00;0.80;;;0.80;;
48040;SDS011;33815;48.386;11.738;2023-04-24T11:32:23;1.80;;;1.00;;
48040;SDS011;33815;48.386;11.738;2023-04-24T11:34:51;1.02;;;1.00;;
48040;SDS011;33815;48.386;11.738;2023-04-24T11:37:18;1.00;;;0.80;;
48040;SDS011;33815;48.386;11.738;2023-04-24T11:39:43;1.02;;;0.85;;
48040;SDS011;33815;48.386;11.738;2023-04-24T11:42:09;0.75;;;0.75;;
48040;SDS011;33815;48.386;11.738;2023-04-24T11:44:35;2.33;;;1.00;;
48040;SDS011;33815;48.386;11.738;2023-04-24T11:47:02;3.85;;;1.13;;
48040;SDS011;33815;48.386;11.738;2023-04-24T11:49:29;2.30;;;1.00;;
48040;SDS011;33815;48.386;11.738;2023-04-24T11:51:55;1.50;;;1.40;;
48040;SDS011;33815;48.386;11.738;2023-04-24T11:54:21;3.75;;;0.90;;
48040;SDS011;33815;48.386;11.738;2023-04-24T11:56:46;1.08;;;0.90;;
48040;SDS011;33815;48.386;11.738;2023-04-24T11:59:12;2.67;;;1.10;;
48040;SDS011;33815;48.386;11.738;2023-04-24T12:01:45;1.15;;;0.98;;
48040;SDS011;33815;48.386;11.738;2023-04-24T12:04:11;1.45;;;1.05;;
48040;SDS011;33815;48.386;11.738;2023-04-24T12:06:37;2.55;;;1.20;;
48040;SDS011;33815;48.386;11.738;2023-04-24T12:09:02;1.08;;;1.08;;
48040;SDS011;33815;48.386;11.738;2023-04-24T12:11:27;1.80;;;1.40;;
48040;SDS011;33815;48.386;11.738;2023-04-24T12:13:53;1.27;;;1.17;;
48040;SDS011;33815;48.386;11.738;2023-04-24T12:16:18;1.65;;;0.82;;
48040;SDS011;33815;48.386;11.738;2023-04-24T12:18:44;2.05;;;1.38;;
48040;SDS011;33815;48.386;11.738;2023-04-24T12:23:46;2.97;;;1.00;;
48040;SDS011;33815;48.386;11.738;2023-04-24T12:26:12;1.33;;;1.08;;
48040;SDS011;33815;48.386;11.738;2023-04-24T12:28:41;1.00;;;0.90;;
48040;SDS011;33815;48.386;11.738;2023-04-24T12:31:06;0.87;;;0.87;;
48040;SDS011;33815;48.386;11.738;2023-04-24T12:33:33;1.83;;;1.30;;
48040;SDS011;33815;48.386;11.738;2023-04-24T12:35:59;3.45;;;1.00;;
48040;SDS011;33815;48.386;11.738;2023-04-24T12:38:25;4.80;;;0.98;;
48040;SDS011;33815;48.386;11.738;2023-04-24T12:41:02;2.15;;;0.85;;
48040;SDS011;33815;48.386;11.738;2023-04-24T12:43:28;1.45;;;1.13;;
48040;SDS011;33815;48.386;11.738;2023-04-24T12:45:54;1.35;;;1.10;;
48040;SDS011;33815;48.386;11.738;2023-04-24T12:48:19;3.60;;;1.00;;
48040;SDS011;33815;48.386;11.738;2023-04-24T12:50:45;0.88;;;0.85;;
48040;SDS011;33815;48.386;11.738;2023-04-24T12:53:10;1.65;;;0.93;;
48040;SDS011;33815;48.386;11.738;2023-04-24T12:55:36;1.23;;;1.00;;
48040;SDS011;33815;48.386;11.738;2023-04-24T12:58:01;4.82;;;1.00;;
48040;SDS011;33815;48.386;11.738;2023-04-24T13:00:28;1.10;;;1.08;;
48040;SDS011;33815;48.386;11.738;2023-04-24T13:02:53;1.55;;;0.93;;
48040;SDS011;33815;48.386;11.738;2023-04-24T13:05:19;1.52;;;1.33;;
48040;SDS011;33815;48.386;11.738;2023-04-24T13:07:44;1.08;;;0.93;;
48040;SDS011;33815;48.386;11.738;2023-04-24T13:10:09;0.70;;;0.70;;
48040;SDS011;33815;48.386;11.738;2023-04-24T13:12:35;6.35;;;1.33;;
48040;SDS011;33815;48.386;11.738;2023-04-24T13:15:00;1.55;;;0.80;;
48040;SDS011;33815;48.386;11.738;2023-04-24T13:17:25;1.47;;;0.97;;
48040;SDS011;33815;48.386;11.738;2023-04-24T13:19:51;1.00;;;0.90;;
48040;SDS011;33815;48.386;11.738;2023-04-24T13:22:16;1.10;;;0.70;;
48040;SDS011;33815;48.386;11.738;2023-04-24T13:24:43;1.85;;;1.13;;
48040;SDS011;33815;48.386;11.738;2023-04-24T13:27:09;1.10;;;1.00;;
48040;SDS011;33815;48.386;11.738;2023-04-24T13:29:34;0.60;;;0.60;;
48040;SDS011;33815;48.386;11.738;2023-04-24T13:32:00;0.70;;;0.68;;
48040;SDS011;33815;48.386;11.738;2023-04-24T13:34:25;1.55;;;0.70;;
48040;SDS011;33815;48.386;11.738;2023-04-24T13:36:52;1.35;;;0.75;;
48040;SDS011;33815;48.386;11.738;2023-04-24T13:39:18;1.88;;;0.77;;
48040;SDS011;33815;48.386;11.738;2023-04-24T13:41:44;0.82;;;0.82;;
48040;SDS011;33815;48.386;11.738;2023-04-24T13:44:10;0.50;;;0.50;;
48040;SDS011;33815;48.386;11.738;2023-04-24T13:46:35;1.25;;;0.70;;
48040;SDS011;33815;48.386;11.738;2023-04-24T13:49:01;1.40;;;0.80;;
48040;SDS011;33815;48.386;11.738;2023-04-24T13:51:28;3.05;;;1.02;;
48040;SDS011;33815;48.386;11.738;2023-04-24T13:53:54;0.80;;;0.80;;
48040;SDS011;33815;48.386;11.738;2023-04-24T13:56:19;0.60;;;0.60;;
48040;SDS011;33815;48.386;11.738;2023-04-24T13:58:45;2.38;;;0.80;;
48040;SDS011;33815;48.386;11.738;2023-04-24T14:01:11;0.88;;;0.80;;
48040;SDS011;33815;48.386;11.738;2023-04-24T14:03:37;3.40;;;1.10;;
48040;SDS011;33815;48.386;11.738;2023-04-24T14:06:02;5.63;;;1.60;;
48040;SDS011;33815;48.386;11.738;2023-04-24T14:08:28;1.77;;;0.90;;
48040;SDS011;33815;48.386;11.738;2023-04-24T14:10:53;4.77;;;0.90;;
48040;SDS011;33815;48.386;11.738;2023-04-24T14:13:18;0.68;;;0.68;;
48040;SDS011;33815;48.386;11.738;2023-04-24T14:15:44;0.70;;;0.70;;
48040;SDS011;33815;48.386;11.738;2023-04-24T14:18:10;2.05;;;0.70;;
48040;SDS011;33815;48.386;11.738;2023-04-24T14:20:35;2.10;;;0.73;;
48040;SDS011;33815;48.386;11.738;2023-04-24T14:23:00;2.03;;;0.90;;
48040;SDS011;33815;48.386;11.738;2023-04-24T14:25:26;2.23;;;1.07;;
48040;SDS011;33815;48.386;11.738;2023-04-24T14:27:51;0.93;;;0.77;;
48040;SDS011;33815;48.386;11.738;2023-04-24T14:30:17;0.88;;;0.68;;
48040;SDS011;33815;48.386;11.738;2023-04-24T14:32:43;3.20;;;0.80;;
48040;SDS011;33815;48.386;11.738;2023-04-24T14:35:08;0.63;;;0.50;;
48040;SDS011;33815;48.386;11.738;2023-04-24T14:37:33;1.73;;;0.88;;
48040;SDS011;33815;48.386;11.738;2023-04-24T14:39:59;1.33;;;0.60;;
48040;SDS011;33815;48.386;11.738;2023-04-24T14:42:24;1.50;;;0.80;;
48040;SDS011;33815;48.386;11.738;2023-04-24T14:44:50;4.32;;;1.10;;
48040;SDS011;33815;48.386;11.738;2023-04-24T14:47:16;1.52;;;1.35;;